East Detroit, Michigan
Current Conditions -  °F | °C
As of 10:53 AM on Friday 24 Oct 2014 (Local Time) from KDET Reporting Station
Clear Clear  
Wind Chill: 55°   Ceiling: Unl
Heat Index: 55°   Visibility: 8mi
Dew Point: 42°   Wind: 7mph
Humidity: 62%   Direction: 240°WSW
Pressure: 30.08"   Gusts: NA
Location:  42.4657°N, 82.946°W
Report Text: KDET 241453Z 24006KT 8SM CLR 13/06 A3008 RMK AO2 SLP189 T01280056 58001
Loading
Personal Weather Stations






























Interactive Weather Map
Tropical Storm Tracking
New forecast layout! Learn more

10-Day Weather Forecast

Advertisements
Track Severe Weather on mobile